sensor_id;sensor_type;location;lat;lon;timestamp;temperature;humidity
30764;DHT22;17497;51.476;7.770;2023-10-08T00:01:20;17.50;99.90
30764;DHT22;17497;51.476;7.770;2023-10-08T00:03:48;17.50;99.90
30764;DHT22;17497;51.476;7.770;2023-10-08T00:06:20;17.50;99.90
30764;DHT22;17497;51.476;7.770;2023-10-08T00:08:50;17.50;99.90
30764;DHT22;17497;51.476;7.770;2023-10-08T00:11:18;17.50;99.90
30764;DHT22;17497;51.476;7.770;2023-10-08T00:13:45;17.50;99.90
30764;DHT22;17497;51.476;7.770;2023-10-08T00:16:16;17.40;99.90
30764;DHT22;17497;51.476;7.770;2023-10-08T00:18:45;17.40;99.90
30764;DHT22;17497;51.476;7.770;2023-10-08T00:21:16;17.40;99.90
30764;DHT22;17497;51.476;7.770;2023-10-08T00:23:44;17.40;99.90
30764;DHT22;17497;51.476;7.770;2023-10-08T00:26:20;17.40;99.90
30764;DHT22;17497;51.476;7.770;2023-10-08T00:29:08;17.40;99.90
30764;DHT22;17497;51.476;7.770;2023-10-08T00:31:49;17.40;99.90
30764;DHT22;17497;51.476;7.770;2023-10-08T00:34:19;17.40;99.90
30764;DHT22;17497;51.476;7.770;2023-10-08T00:36:48;17.40;99.90
30764;DHT22;17497;51.476;7.770;2023-10-08T00:39:15;17.40;99.90
30764;DHT22;17497;51.476;7.770;2023-10-08T00:41:50;17.40;99.90
30764;DHT22;17497;51.476;7.770;2023-10-08T00:44:17;17.40;99.90
30764;DHT22;17497;51.476;7.770;2023-10-08T00:46:57;17.40;99.90
30764;DHT22;17497;51.476;7.770;2023-10-08T00:49:28;17.40;99.90
30764;DHT22;17497;51.476;7.770;2023-10-08T00:52:15;17.40;99.90
30764;DHT22;17497;51.476;7.770;2023-10-08T00:54:42;17.30;99.90
30764;DHT22;17497;51.476;7.770;2023-10-08T00:57:34;17.30;99.90
30764;DHT22;17497;51.476;7.770;2023-10-08T01:00:09;17.20;99.90
30764;DHT22;17497;51.476;7.770;2023-10-08T01:02:44;17.20;99.90
30764;DHT22;17497;51.476;7.770;2023-10-08T01:05:15;17.20;99.90
30764;DHT22;17497;51.476;7.770;2023-10-08T01:07:47;17.20;99.90
30764;DHT22;17497;51.476;7.770;2023-10-08T01:10:18;17.20;99.90
30764;DHT22;17497;51.476;7.770;2023-10-08T01:12:48;17.20;99.90
30764;DHT22;17497;51.476;7.770;2023-10-08T01:15:30;17.20;99.90
30764;DHT22;17497;51.476;7.770;2023-10-08T01:17:57;17.20;99.90
30764;DHT22;17497;51.476;7.770;2023-10-08T01:20:27;17.30;99.90
30764;DHT22;17497;51.476;7.770;2023-10-08T01:23:08;17.30;99.90
30764;DHT22;17497;51.476;7.770;2023-10-08T01:25:40;17.30;99.90
30764;DHT22;17497;51.476;7.770;2023-10-08T01:28:09;17.20;99.90
30764;DHT22;17497;51.476;7.770;2023-10-08T01:30:45;17.30;99.90
30764;DHT22;17497;51.476;7.770;2023-10-08T01:33:14;17.30;99.90
30764;DHT22;17497;51.476;7.770;2023-10-08T01:35:43;17.20;99.90
30764;DHT22;17497;51.476;7.770;2023-10-08T01:38:10;17.20;99.90
30764;DHT22;17497;51.476;7.770;2023-10-08T01:40:41;17.30;99.90
30764;DHT22;17497;51.476;7.770;2023-10-08T01:43:09;17.30;99.90
30764;DHT22;17497;51.476;7.770;2023-10-08T01:45:40;17.30;99.90
30764;DHT22;17497;51.476;7.770;2023-10-08T01:48:11;17.30;99.90
30764;DHT22;17497;51.476;7.770;2023-10-08T01:50:38;17.30;99.90
30764;DHT22;17497;51.476;7.770;2023-10-08T01:53:06;17.20;99.90
30764;DHT22;17497;51.476;7.770;2023-10-08T01:55:36;17.20;99.90
30764;DHT22;17497;51.476;7.770;2023-10-08T01:58:13;17.20;99.90
30764;DHT22;17497;51.476;7.770;2023-10-08T02:00:47;17.20;99.90
30764;DHT22;17497;51.476;7.770;2023-10-08T02:03:15;17.20;99.90
30764;DHT22;17497;51.476;7.770;2023-10-08T02:05:46;17.20;99.90
30764;DHT22;17497;51.476;7.770;2023-10-08T02:08:14;17.20;99.90
30764;DHT22;17497;51.476;7.770;2023-10-08T02:10:44;17.30;99.90
30764;DHT22;17497;51.476;7.770;2023-10-08T02:13:14;17.20;99.90
30764;DHT22;17497;51.476;7.770;2023-10-08T02:15:44;17.10;99.90
30764;DHT22;17497;51.476;7.770;2023-10-08T02:18:11;17.10;99.90
30764;DHT22;17497;51.476;7.770;2023-10-08T02:20:39;17.10;99.90
30764;DHT22;17497;51.476;7.770;2023-10-08T02:23:06;17.10;99.90
30764;DHT22;17497;51.476;7.770;2023-10-08T02:25:33;17.00;99.90
30764;DHT22;17497;51.476;7.770;2023-10-08T02:28:03;17.00;99.90
30764;DHT22;17497;51.476;7.770;2023-10-08T02:30:29;17.00;99.90
30764;DHT22;17497;51.476;7.770;2023-10-08T02:32:56;16.90;99.90
30764;DHT22;17497;51.476;7.770;2023-10-08T02:35:25;17.00;99.90
30764;DHT22;17497;51.476;7.770;2023-10-08T02:37:54;16.90;99.90
30764;DHT22;17497;51.476;7.770;2023-10-08T02:40:23;16.90;99.90
30764;DHT22;17497;51.476;7.770;2023-10-08T02:42:54;16.90;99.90
30764;DHT22;17497;51.476;7.770;2023-10-08T02:45:28;16.90;99.90
30764;DHT22;17497;51.476;7.770;2023-10-08T02:47:55;17.00;99.90
30764;DHT22;17497;51.476;7.770;2023-10-08T02:50:22;16.90;99.90
30764;DHT22;17497;51.476;7.770;2023-10-08T02:52:50;16.90;99.90
30764;DHT22;17497;51.476;7.770;2023-10-08T02:55:18;16.80;99.90
30764;DHT22;17497;51.476;7.770;2023-10-08T02:58:02;16.80;99.90
30764;DHT22;17497;51.476;7.770;2023-10-08T03:00:31;16.80;99.90
30764;DHT22;17497;51.476;7.770;2023-10-08T13:46:25;17.40;99.90
30764;DHT22;17497;51.476;7.770;2023-10-08T13:48:52;17.40;99.90
30764;DHT22;17497;51.476;7.770;2023-10-08T13:51:20;17.50;99.90
30764;DHT22;17497;51.476;7.770;2023-10-08T13:53:51;17.50;99.90
30764;DHT22;17497;51.476;7.770;2023-10-08T13:56:27;17.40;99.90
30764;DHT22;17497;51.476;7.770;2023-10-08T13:58:57;17.40;99.90
30764;DHT22;17497;51.476;7.770;2023-10-08T14:01:33;17.40;99.90
30764;DHT22;17497;51.476;7.770;2023-10-08T14:04:01;17.40;99.90
30764;DHT22;17497;51.476;7.770;2023-10-08T14:06:37;17.40;99.90
30764;DHT22;17497;51.476;7.770;2023-10-08T14:09:04;17.40;99.90
30764;DHT22;17497;51.476;7.770;2023-10-08T14:11:39;17.30;99.90
30764;DHT22;17497;51.476;7.770;2023-10-08T14:14:09;17.20;99.90
30764;DHT22;17497;51.476;7.770;2023-10-08T14:16:39;17.20;99.90
30764;DHT22;17497;51.476;7.770;2023-10-08T14:19:12;17.10;99.90
30764;DHT22;17497;51.476;7.770;2023-10-08T14:21:43;17.10;99.90
30764;DHT22;17497;51.476;7.770;2023-10-08T14:24:20;17.20;99.90
30764;DHT22;17497;51.476;7.770;2023-10-08T14:26:47;17.20;99.90
30764;DHT22;17497;51.476;7.770;2023-10-08T14:29:29;17.30;99.90
30764;DHT22;17497;51.476;7.770;2023-10-08T14:31:56;17.20;99.90
30764;DHT22;17497;51.476;7.770;2023-10-08T14:34:23;17.20;99.90
30764;DHT22;17497;51.476;7.770;2023-10-08T14:37:09;17.10;99.90
30764;DHT22;17497;51.476;7.770;2023-10-08T14:39:54;17.10;99.90
30764;DHT22;17497;51.476;7.770;2023-10-08T14:42:40;17.10;99.90
30764;DHT22;17497;51.476;7.770;2023-10-08T14:45:27;17.10;99.90
30764;DHT22;17497;51.476;7.770;2023-10-08T14:47:55;17.00;99.90
30764;DHT22;17497;51.476;7.770;2023-10-08T14:50:26;17.10;99.90
30764;DHT22;17497;51.476;7.770;2023-10-08T14:52:54;17.10;99.90
30764;DHT22;17497;51.476;7.770;2023-10-08T14:55:22;17.10;99.90
30764;DHT22;17497;51.476;7.770;2023-10-08T14:57:49;17.00;99.90
30764;DHT22;17497;51.476;7.770;2023-10-08T15:00:20;17.00;99.90
30764;DHT22;17497;51.476;7.770;2023-10-08T15:02:55;16.90;99.90
30764;DHT22;17497;51.476;7.770;2023-10-08T15:05:23;16.90;99.90
30764;DHT22;17497;51.476;7.770;2023-10-08T15:07:50;16.80;99.90
30764;DHT22;17497;51.476;7.770;2023-10-08T15:10:18;16.90;99.90
30764;DHT22;17497;51.476;7.770;2023-10-08T15:12:45;16.80;99.90
30764;DHT22;17497;51.476;7.770;2023-10-08T15:15:12;16.80;99.90
30764;DHT22;17497;51.476;7.770;2023-10-08T15:17:44;16.90;99.90
30764;DHT22;17497;51.476;7.770;2023-10-08T15:20:12;17.00;99.90
30764;DHT22;17497;51.476;7.770;2023-10-08T15:22:42;17.00;99.90
30764;DHT22;17497;51.476;7.770;2023-10-08T15:25:10;17.00;99.90
30764;DHT22;17497;51.476;7.770;2023-10-08T15:27:40;16.90;99.90
30764;DHT22;17497;51.476;7.770;2023-10-08T15:30:09;16.80;99.90
30764;DHT22;17497;51.476;7.770;2023-10-08T15:32:39;16.70;99.90
30764;DHT22;17497;51.476;7.770;2023-10-08T15:35:07;16.70;99.90
30764;DHT22;17497;51.476;7.770;2023-10-08T15:37:36;16.70;99.90
30764;DHT22;17497;51.476;7.770;2023-10-08T15:40:05;16.60;99.90
30764;DHT22;17497;51.476;7.770;2023-10-08T15:42:36;16.60;99.90
30764;DHT22;17497;51.476;7.770;2023-10-08T15:45:04;16.50;99.90
30764;DHT22;17497;51.476;7.770;2023-10-08T15:47:34;16.50;99.90
30764;DHT22;17497;51.476;7.770;2023-10-08T15:50:02;16.40;99.90
30764;DHT22;17497;51.476;7.770;2023-10-08T15:52:28;16.40;99.90
30764;DHT22;17497;51.476;7.770;2023-10-08T15:54:55;16.40;99.90
30764;DHT22;17497;51.476;7.770;2023-10-08T15:57:22;16.30;99.90
30764;DHT22;17497;51.476;7.770;2023-10-08T15:59:49;16.30;99.90
30764;DHT22;17497;51.476;7.770;2023-10-08T16:02:16;16.20;99.90
30764;DHT22;17497;51.476;7.770;2023-10-08T16:04:48;16.20;99.90
30764;DHT22;17497;51.476;7.770;2023-10-08T16:07:15;16.20;99.90
30764;DHT22;17497;51.476;7.770;2023-10-08T16:09:42;16.10;99.90
30764;DHT22;17497;51.476;7.770;2023-10-08T16:12:09;16.00;99.90
30764;DHT22;17497;51.476;7.770;2023-10-08T16:14:36;16.00;99.90
30764;DHT22;17497;51.476;7.770;2023-10-08T16:17:06;15.90;99.90
30764;DHT22;17497;51.476;7.770;2023-10-08T16:19:36;15.80;99.90
30764;DHT22;17497;51.476;7.770;2023-10-08T16:22:04;15.80;99.90
30764;DHT22;17497;51.476;7.770;2023-10-08T16:24:30;15.80;99.90
30764;DHT22;17497;51.476;7.770;2023-10-08T16:26:57;15.70;99.90
30764;DHT22;17497;51.476;7.770;2023-10-08T16:29:24;15.70;99.90
30764;DHT22;17497;51.476;7.770;2023-10-08T16:31:51;15.60;99.90
30764;DHT22;17497;51.476;7.770;2023-10-08T16:34:18;15.60;99.90
30764;DHT22;17497;51.476;7.770;2023-10-08T16:36:44;15.60;99.90
30764;DHT22;17497;51.476;7.770;2023-10-08T16:39:12;15.50;99.90
30764;DHT22;17497;51.476;7.770;2023-10-08T16:41:45;15.50;99.90
30764;DHT22;17497;51.476;7.770;2023-10-08T16:44:12;15.40;99.90
30764;DHT22;17497;51.476;7.770;2023-10-08T16:46:40;15.40;99.90
30764;DHT22;17497;51.476;7.770;2023-10-08T16:49:09;15.50;99.90
30764;DHT22;17497;51.476;7.770;2023-10-08T16:51:37;15.40;99.90
30764;DHT22;17497;51.476;7.770;2023-10-08T16:54:05;15.40;99.90
30764;DHT22;17497;51.476;7.770;2023-10-08T16:56:35;15.40;99.90
30764;DHT22;17497;51.476;7.770;2023-10-08T16:59:04;15.30;99.90
30764;DHT22;17497;51.476;7.770;2023-10-08T17:01:36;15.20;99.90
30764;DHT22;17497;51.476;7.770;2023-10-08T17:04:03;15.20;99.90
30764;DHT22;17497;51.476;7.770;2023-10-08T17:06:32;15.20;99.90
30764;DHT22;17497;51.476;7.770;2023-10-08T17:08:59;15.10;99.90
30764;DHT22;17497;51.476;7.770;2023-10-08T17:11:26;15.10;99.90
30764;DHT22;17497;51.476;7.770;2023-10-08T17:13:54;15.10;99.90
30764;DHT22;17497;51.476;7.770;2023-10-08T17:16:21;15.00;99.90
30764;DHT22;17497;51.476;7.770;2023-10-08T17:18:48;15.00;99.90
30764;DHT22;17497;51.476;7.770;2023-10-08T17:21:15;15.00;99.90
30764;DHT22;17497;51.476;7.770;2023-10-08T17:23:45;14.90;99.90
30764;DHT22;17497;51.476;7.770;2023-10-08T17:26:12;14.90;99.90
30764;DHT22;17497;51.476;7.770;2023-10-08T17:28:40;14.90;99.90
30764;DHT22;17497;51.476;7.770;2023-10-08T17:31:08;14.80;99.90
30764;DHT22;17497;51.476;7.770;2023-10-08T17:33:37;14.80;99.90
30764;DHT22;17497;51.476;7.770;2023-10-08T17:36:06;14.80;99.90
30764;DHT22;17497;51.476;7.770;2023-10-08T17:38:36;14.80;99.90
30764;DHT22;17497;51.476;7.770;2023-10-08T17:41:04;14.80;99.90
30764;DHT22;17497;51.476;7.770;2023-10-08T17:43:34;14.80;99.90
30764;DHT22;17497;51.476;7.770;2023-10-08T17:46:00;14.70;99.90
30764;DHT22;17497;51.476;7.770;2023-10-08T17:48:27;14.70;99.90
30764;DHT22;17497;51.476;7.770;2023-10-08T17:50:57;14.60;99.90
30764;DHT22;17497;51.476;7.770;2023-10-08T17:53:24;14.50;99.90
30764;DHT22;17497;51.476;7.770;2023-10-08T17:55:51;14.60;99.90
30764;DHT22;17497;51.476;7.770;2023-10-08T17:58:18;14.50;99.90
30764;DHT22;17497;51.476;7.770;2023-10-08T18:00:55;14.50;99.90
30764;DHT22;17497;51.476;7.770;2023-10-08T18:03:22;14.50;99.90
30764;DHT22;17497;51.476;7.770;2023-10-08T18:05:49;14.40;99.90
30764;DHT22;17497;51.476;7.770;2023-10-08T18:08:20;14.30;99.90
30764;DHT22;17497;51.476;7.770;2023-10-08T18:10:48;14.30;99.90
30764;DHT22;17497;51.476;7.770;2023-10-08T18:13:15;14.30;99.90
30764;DHT22;17497;51.476;7.770;2023-10-08T18:15:43;14.20;99.90
30764;DHT22;17497;51.476;7.770;2023-10-08T18:18:10;14.10;99.90
30764;DHT22;17497;51.476;7.770;2023-10-08T18:20:40;14.10;99.90
30764;DHT22;17497;51.476;7.770;2023-10-08T18:23:11;14.10;99.90
30764;DHT22;17497;51.476;7.770;2023-10-08T18:25:38;14.10;99.90
30764;DHT22;17497;51.476;7.770;2023-10-08T18:28:05;14.00;99.90
30764;DHT22;17497;51.476;7.770;2023-10-08T18:30:32;14.00;99.90
30764;DHT22;17497;51.476;7.770;2023-10-08T18:33:00;14.00;99.90
30764;DHT22;17497;51.476;7.770;2023-10-08T18:35:27;13.90;99.90
30764;DHT22;17497;51.476;7.770;2023-10-08T18:37:53;13.90;99.90
30764;DHT22;17497;51.476;7.770;2023-10-08T18:40:26;14.00;99.90
30764;DHT22;17497;51.476;7.770;2023-10-08T18:42:57;14.00;99.90
30764;DHT22;17497;51.476;7.770;2023-10-08T18:45:24;13.90;99.90
30764;DHT22;17497;51.476;7.770;2023-10-08T18:47:54;13.90;99.90
30764;DHT22;17497;51.476;7.770;2023-10-08T18:50:21;13.90;99.90
30764;DHT22;17497;51.476;7.770;2023-10-08T18:52:49;13.80;99.90
30764;DHT22;17497;51.476;7.770;2023-10-08T18:55:18;13.80;99.90
30764;DHT22;17497;51.476;7.770;2023-10-08T18:57:47;13.80;99.90
30764;DHT22;17497;51.476;7.770;2023-10-08T19:00:20;13.70;99.90
30764;DHT22;17497;51.476;7.770;2023-10-08T19:02:47;13.70;99.90
30764;DHT22;17497;51.476;7.770;2023-10-08T19:05:15;13.70;99.90
30764;DHT22;17497;51.476;7.770;2023-10-08T19:07:45;13.80;99.90
30764;DHT22;17497;51.476;7.770;2023-10-08T19:10:12;13.80;99.90
30764;DHT22;17497;51.476;7.770;2023-10-08T19:12:42;13.80;99.90
30764;DHT22;17497;51.476;7.770;2023-10-08T19:15:09;13.70;99.90
30764;DHT22;17497;51.476;7.770;2023-10-08T19:17:41;13.70;99.90
30764;DHT22;17497;51.476;7.770;2023-10-08T19:20:09;13.80;99.90
30764;DHT22;17497;51.476;7.770;2023-10-08T19:22:36;13.80;99.90
30764;DHT22;17497;51.476;7.770;2023-10-08T19:25:03;13.70;99.90
30764;DHT22;17497;51.476;7.770;2023-10-08T19:27:30;13.60;99.90
30764;DHT22;17497;51.476;7.770;2023-10-08T19:29:58;13.60;99.90
30764;DHT22;17497;51.476;7.770;2023-10-08T19:32:25;13.60;99.90
30764;DHT22;17497;51.476;7.770;2023-10-08T19:34:52;13.50;99.90
30764;DHT22;17497;51.476;7.770;2023-10-08T19:37:20;13.50;99.90
30764;DHT22;17497;51.476;7.770;2023-10-08T19:39:47;13.50;99.90
30764;DHT22;17497;51.476;7.770;2023-10-08T19:42:14;13.50;99.90
30764;DHT22;17497;51.476;7.770;2023-10-08T19:44:41;13.50;99.90
30764;DHT22;17497;51.476;7.770;2023-10-08T19:47:07;13.50;99.90
30764;DHT22;17497;51.476;7.770;2023-10-08T19:49:35;13.40;99.90
30764;DHT22;17497;51.476;7.770;2023-10-08T19:52:03;13.40;99.90
30764;DHT22;17497;51.476;7.770;2023-10-08T19:54:30;13.50;99.90
30764;DHT22;17497;51.476;7.770;2023-10-08T19:56:57;13.50;99.90
30764;DHT22;17497;51.476;7.770;2023-10-08T19:59:30;13.50;99.90
30764;DHT22;17497;51.476;7.770;2023-10-08T20:01:57;13.50;99.90
30764;DHT22;17497;51.476;7.770;2023-10-08T20:04:24;13.50;99.90
30764;DHT22;17497;51.476;7.770;2023-10-08T20:06:51;13.40;99.90
30764;DHT22;17497;51.476;7.770;2023-10-08T20:09:19;13.40;99.90
30764;DHT22;17497;51.476;7.770;2023-10-08T20:11:46;13.40;99.90
30764;DHT22;17497;51.476;7.770;2023-10-08T20:14:13;13.40;99.90
30764;DHT22;17497;51.476;7.770;2023-10-08T20:16:39;13.40;99.90
30764;DHT22;17497;51.476;7.770;2023-10-08T20:19:06;13.30;99.90
30764;DHT22;17497;51.476;7.770;2023-10-08T20:21:33;13.30;99.90
30764;DHT22;17497;51.476;7.770;2023-10-08T20:24:00;13.30;99.90
30764;DHT22;17497;51.476;7.770;2023-10-08T20:26:29;13.30;99.90
30764;DHT22;17497;51.476;7.770;2023-10-08T20:29:00;13.30;99.90
30764;DHT22;17497;51.476;7.770;2023-10-08T20:31:28;13.30;99.90
30764;DHT22;17497;51.476;7.770;2023-10-08T20:33:56;13.30;99.90
30764;DHT22;17497;51.476;7.770;2023-10-08T20:36:22;13.30;99.90
30764;DHT22;17497;51.476;7.770;2023-10-08T20:38:50;13.40;99.90
30764;DHT22;17497;51.476;7.770;2023-10-08T20:41:17;13.50;99.90
30764;DHT22;17497;51.476;7.770;2023-10-08T20:43:48;13.50;99.90
30764;DHT22;17497;51.476;7.770;2023-10-08T20:46:16;13.50;99.90
30764;DHT22;17497;51.476;7.770;2023-10-08T20:48:44;13.50;99.90
30764;DHT22;17497;51.476;7.770;2023-10-08T20:51:11;13.50;99.90
30764;DHT22;17497;51.476;7.770;2023-10-08T20:53:45;13.50;99.90
30764;DHT22;17497;51.476;7.770;2023-10-08T20:56:14;13.50;99.90
30764;DHT22;17497;51.476;7.770;2023-10-08T20:58:42;13.40;99.90
30764;DHT22;17497;51.476;7.770;2023-10-08T21:01:08;13.40;99.90
30764;DHT22;17497;51.476;7.770;2023-10-08T21:03:37;13.40;99.90
30764;DHT22;17497;51.476;7.770;2023-10-08T21:06:04;13.40;99.90
30764;DHT22;17497;51.476;7.770;2023-10-08T21:08:32;13.30;99.90
30764;DHT22;17497;51.476;7.770;2023-10-08T21:10:59;13.30;99.90
30764;DHT22;17497;51.476;7.770;2023-10-08T21:13:28;13.20;99.90
30764;DHT22;17497;51.476;7.770;2023-10-08T21:15:57;13.20;99.90
30764;DHT22;17497;51.476;7.770;2023-10-08T21:18:27;13.20;99.90
30764;DHT22;17497;51.476;7.770;2023-10-08T21:20:55;13.20;99.90
30764;DHT22;17497;51.476;7.770;2023-10-08T21:23:23;13.20;99.90
30764;DHT22;17497;51.476;7.770;2023-10-08T21:25:50;13.20;99.90
30764;DHT22;17497;51.476;7.770;2023-10-08T21:28:17;13.20;99.90
30764;DHT22;17497;51.476;7.770;2023-10-08T21:30:44;13.20;99.90
30764;DHT22;17497;51.476;7.770;2023-10-08T21:33:11;13.20;99.90
30764;DHT22;17497;51.476;7.770;2023-10-08T21:35:38;13.20;99.90
30764;DHT22;17497;51.476;7.770;2023-10-08T21:38:05;13.30;99.90
30764;DHT22;17497;51.476;7.770;2023-10-08T21:40:35;13.30;99.90
30764;DHT22;17497;51.476;7.770;2023-10-08T21:43:03;13.30;99.90
30764;DHT22;17497;51.476;7.770;2023-10-08T21:45:30;13.30;99.90
30764;DHT22;17497;51.476;7.770;2023-10-08T21:47:58;13.30;99.90
30764;DHT22;17497;51.476;7.770;2023-10-08T21:50:27;13.30;99.90
30764;DHT22;17497;51.476;7.770;2023-10-08T21:52:54;13.30;99.90
30764;DHT22;17497;51.476;7.770;2023-10-08T21:55:20;13.30;99.90
30764;DHT22;17497;51.476;7.770;2023-10-08T21:57:51;13.40;99.90
30764;DHT22;17497;51.476;7.770;2023-10-08T22:00:21;13.30;99.90
30764;DHT22;17497;51.476;7.770;2023-10-08T22:02:56;13.40;99.90
30764;DHT22;17497;51.476;7.770;2023-10-08T22:05:26;13.30;99.90
30764;DHT22;17497;51.476;7.770;2023-10-08T22:07:57;13.30;99.90
30764;DHT22;17497;51.476;7.770;2023-10-08T22:10:25;13.20;99.90
30764;DHT22;17497;51.476;7.770;2023-10-08T22:12:54;13.20;99.90
30764;DHT22;17497;51.476;7.770;2023-10-08T22:15:25;13.20;99.90
30764;DHT22;17497;51.476;7.770;2023-10-08T22:17:55;13.20;99.90
30764;DHT22;17497;51.476;7.770;2023-10-08T22:20:23;13.30;99.90
30764;DHT22;17497;51.476;7.770;2023-10-08T22:23:07;13.20;99.90
30764;DHT22;17497;51.476;7.770;2023-10-08T22:25:36;13.20;99.90
30764;DHT22;17497;51.476;7.770;2023-10-08T22:28:04;13.20;99.90
30764;DHT22;17497;51.476;7.770;2023-10-08T22:30:50;13.10;99.90
30764;DHT22;17497;51.476;7.770;2023-10-08T22:33:23;13.10;99.90
30764;DHT22;17497;51.476;7.770;2023-10-08T22:36:01;13.10;99.90
30764;DHT22;17497;51.476;7.770;2023-10-08T22:38:34;13.20;99.90
30764;DHT22;17497;51.476;7.770;2023-10-08T22:41:01;13.10;99.90
30764;DHT22;17497;51.476;7.770;2023-10-08T22:43:28;13.20;99.90
30764;DHT22;17497;51.476;7.770;2023-10-08T22:46:01;13.20;99.90
30764;DHT22;17497;51.476;7.770;2023-10-08T22:48:29;13.10;99.90
30764;DHT22;17497;51.476;7.770;2023-10-08T22:51:02;13.20;99.90
30764;DHT22;17497;51.476;7.770;2023-10-08T22:53:37;13.20;99.90
30764;DHT22;17497;51.476;7.770;2023-10-08T22:56:05;13.10;99.90
30764;DHT22;17497;51.476;7.770;2023-10-08T22:58:33;13.20;99.90
30764;DHT22;17497;51.476;7.770;2023-10-08T23:01:09;13.20;99.90
30764;DHT22;17497;51.476;7.770;2023-10-08T23:03:39;13.30;99.90
30764;DHT22;17497;51.476;7.770;2023-10-08T23:06:10;13.30;99.90
30764;DHT22;17497;51.476;7.770;2023-10-08T23:08:43;13.30;99.90
30764;DHT22;17497;51.476;7.770;2023-10-08T23:11:11;13.30;99.90
30764;DHT22;17497;51.476;7.770;2023-10-08T23:13:41;13.40;99.90
30764;DHT22;17497;51.476;7.770;2023-10-08T23:16:09;13.40;99.90
30764;DHT22;17497;51.476;7.770;2023-10-08T23:18:37;13.40;99.90
30764;DHT22;17497;51.476;7.770;2023-10-08T23:21:07;13.50;99.90
30764;DHT22;17497;51.476;7.770;2023-10-08T23:23:34;13.50;99.90
30764;DHT22;17497;51.476;7.770;2023-10-08T23:26:10;13.50;99.90
30764;DHT22;17497;51.476;7.770;2023-10-08T23:28:40;13.50;99.90
30764;DHT22;17497;51.476;7.770;2023-10-08T23:31:07;13.50;99.90
30764;DHT22;17497;51.476;7.770;2023-10-08T23:33:38;13.50;99.90
30764;DHT22;17497;51.476;7.770;2023-10-08T23:36:08;13.40;99.90
30764;DHT22;17497;51.476;7.770;2023-10-08T23:38:36;13.30;99.90
30764;DHT22;17497;51.476;7.770;2023-10-08T23:41:10;13.30;99.90
30764;DHT22;17497;51.476;7.770;2023-10-08T23:43:50;13.20;99.90
30764;DHT22;17497;51.476;7.770;2023-10-08T23:46:24;13.20;99.90
30764;DHT22;17497;51.476;7.770;2023-10-08T23:49:00;13.10;99.90
30764;DHT22;17497;51.476;7.770;2023-10-08T23:51:33;13.00;99.90
30764;DHT22;17497;51.476;7.770;2023-10-08T23:54:04;13.00;99.90
30764;DHT22;17497;51.476;7.770;2023-10-08T23:56:39;12.90;99.90
30764;DHT22;17497;51.476;7.770;2023-10-08T23:59:17;12.80;99.90
